Time;durP1;ratioP1;P1;durP2;ratioP2;P2;SDS_P1;SDS_P2;PMS_P1;PMS_P2;Temp;Humidity;BMP_temperature;BMP_pressure;BME280_temperature;BME280_humidity;BME280_pressure;Samples;Min_cycle;Max_cycle;Signal;HPM_P1;HPM_P2
2023/11/28 00:02:17;;;;;;;2.33;1.10;;;;;;;;;;6212947;23;20306;-84
2023/11/28 00:04:43;;;;;;;1.63;0.55;;;;;;;;;;6210767;23;20040;-85
2023/11/28 00:07:09;;;;;;;2.40;0.90;;;;;;;;;;6211966;23;20027;-84
2023/11/28 00:09:35;;;;;;;5.03;1.17;;;;;;;;;;6210542;23;20446;-84
2023/11/28 00:12:01;;;;;;;4.43;1.30;;;;;;;;;;6209684;23;20015;-84
2023/11/28 00:14:27;;;;;;;2.53;1.25;;;;;;;;;;6210344;23;20459;-84
2023/11/28 00:16:53;;;;;;;2.00;0.98;;;;;;;;;;6210019;23;20067;-84
2023/11/28 00:19:19;;;;;;;1.42;0.30;;;;;;;;;;6209392;23;20016;-83
2023/11/28 00:21:45;;;;;;;0.57;0.30;;;;;;;;;;6210122;23;20035;-84
2023/11/28 00:24:11;;;;;;;2.33;1.20;;;;;;;;;;6209903;23;20332;-84
2023/11/28 00:26:37;;;;;;;1.27;0.38;;;;;;;;;;6210827;23;20059;-82
2023/11/28 00:29:03;;;;;;;1.33;0.30;;;;;;;;;;6210439;23;20009;-84
2023/11/28 00:31:30;;;;;;;1.77;1.08;;;;;;;;;;6211071;23;20445;-84
2023/11/28 00:33:56;;;;;;;1.73;0.30;;;;;;;;;;6210708;23;20013;-84
2023/11/28 00:36:22;;;;;;;1.73;0.47;;;;;;;;;;6210738;23;20344;-84
2023/11/28 00:38:48;;;;;;;1.50;0.50;;;;;;;;;;6210518;23;20020;-84
2023/11/28 00:41:14;;;;;;;2.25;0.82;;;;;;;;;;6213473;23;20004;-83
2023/11/28 00:43:40;;;;;;;1.58;0.52;;;;;;;;;;6211561;23;20000;-84
2023/11/28 00:46:06;;;;;;;0.32;0.20;;;;;;;;;;6211831;23;20340;-84
2023/11/28 00:48:32;;;;;;;1.02;0.52;;;;;;;;;;6212788;23;20016;-83
2023/11/28 00:50:58;;;;;;;1.23;0.32;;;;;;;;;;6212464;23;20413;-84
2023/11/28 00:53:24;;;;;;;0.52;0.30;;;;;;;;;;6212004;23;20011;-84
2023/11/28 00:55:50;;;;;;;0.50;0.35;;;;;;;;;;6213651;23;20031;-84
2023/11/28 00:58:16;;;;;;;0.38;0.38;;;;;;;;;;6213456;23;20401;-84
2023/11/28 01:00:42;;;;;;;3.78;0.93;;;;;;;;;;6210982;23;20009;-84
2023/11/28 01:03:08;;;;;;;0.38;0.20;;;;;;;;;;6212130;23;20009;-84
2023/11/28 01:05:34;;;;;;;0.38;0.28;;;;;;;;;;6211366;23;20082;-83
2023/11/28 01:08:00;;;;;;;4.15;0.90;;;;;;;;;;6212865;23;20296;-85
2023/11/28 01:10:26;;;;;;;0.55;0.40;;;;;;;;;;6211076;23;20017;-86
2023/11/28 01:12:53;;;;;;;0.65;0.50;;;;;;;;;;6212575;23;20016;-85
2023/11/28 01:15:19;;;;;;;1.65;0.90;;;;;;;;;;6211968;23;20063;-85
2023/11/28 01:17:45;;;;;;;0.25;0.15;;;;;;;;;;6211932;23;20017;-85
2023/11/28 01:20:12;;;;;;;1.20;0.30;;;;;;;;;;6211598;23;20008;-85
2023/11/28 01:22:37;;;;;;;0.90;0.57;;;;;;;;;;6213222;23;20032;-85
2023/11/28 01:25:04;;;;;;;2.80;0.73;;;;;;;;;;6214138;23;20016;-85
2023/11/28 01:27:30;;;;;;;1.98;0.30;;;;;;;;;;6213213;23;20329;-84
2023/11/28 01:29:56;;;;;;;0.20;0.10;;;;;;;;;;6213714;23;20024;-85
2023/11/28 01:32:22;;;;;;;0.63;0.30;;;;;;;;;;6214071;23;20440;-84
2023/11/28 01:34:48;;;;;;;0.35;0.10;;;;;;;;;;6213336;23;20032;-84
2023/11/28 01:37:16;;;;;;;1.27;0.38;;;;;;;;;;6213063;23;20435;-84
2023/11/28 01:39:42;;;;;;;1.52;0.73;;;;;;;;;;6213263;23;20015;-84
2023/11/28 01:42:08;;;;;;;2.88;0.45;;;;;;;;;;6212892;23;20051;-84
2023/11/28 01:44:34;;;;;;;0.10;0.10;;;;;;;;;;6212843;23;20088;-84
2023/11/28 01:47:00;;;;;;;1.45;0.85;;;;;;;;;;6212965;23;20036;-84
2023/11/28 01:49:32;;;;;;;2.28;0.55;;;;;;;;;;6212793;23;20020;-84
2023/11/28 01:51:58;;;;;;;;;;;;;;;;;;6214995;23;20368;-84
2023/11/28 01:54:25;;;;;;;0.70;0.40;;;;;;;;;;6187068;23;19916;-83
2023/11/28 01:56:52;;;;;;;1.45;0.57;;;;;;;;;;6213871;23;20012;-83
2023/11/28 01:59:18;;;;;;;8.95;1.00;;;;;;;;;;6213351;23;20066;-83
2023/11/28 02:01:44;;;;;;;0.20;0.15;;;;;;;;;;6214248;23;20428;-83
2023/11/28 02:04:10;;;;;;;0.40;0.32;;;;;;;;;;6213022;23;20013;-83
2023/11/28 02:06:36;;;;;;;0.68;0.30;;;;;;;;;;6212623;23;20015;-84
2023/11/28 02:09:02;;;;;;;0.75;0.40;;;;;;;;;;6211478;23;20107;-83
2023/11/28 02:11:28;;;;;;;1.23;0.40;;;;;;;;;;6212903;23;20095;-84
2023/11/28 02:13:54;;;;;;;0.93;0.47;;;;;;;;;;6212542;23;20016;-84
2023/11/28 02:16:21;;;;;;;0.65;0.30;;;;;;;;;;6213985;23;20357;-83
2023/11/28 02:18:47;;;;;;;0.85;0.30;;;;;;;;;;6213144;23;20481;-83
2023/11/28 02:21:14;;;;;;;9.75;0.93;;;;;;;;;;6212294;23;20004;-83
2023/11/28 02:23:40;;;;;;;0.65;0.10;;;;;;;;;;6211489;23;20009;-82
2023/11/28 02:26:32;;;;;;;0.00;0.00;;;;;;;;;;6214157;23;20008;-83
2023/11/28 02:28:58;;;;;;;0.20;0.05;;;;;;;;;;6207431;23;20016;-83
2023/11/28 02:31:25;;;;;;;0.10;0.00;;;;;;;;;;6211661;23;20028;-83
2023/11/28 02:33:51;;;;;;;0.30;0.22;;;;;;;;;;6211463;23;20013;-84
2023/11/28 02:36:19;;;;;;;1.50;0.28;;;;;;;;;;6212505;23;20017;-83
2023/11/28 02:38:45;;;;;;;1.88;0.43;;;;;;;;;;6212433;23;20009;-83
2023/11/28 02:41:11;;;;;;;0.65;0.20;;;;;;;;;;6214719;23;20005;-84
2023/11/28 02:43:37;;;;;;;1.20;0.47;;;;;;;;;;6213113;23;20005;-84
2023/11/28 02:46:03;;;;;;;1.45;0.40;;;;;;;;;;6211381;23;20020;-83
2023/11/28 02:48:30;;;;;;;1.63;0.50;;;;;;;;;;6210383;23;20012;-83
2023/11/28 02:50:56;;;;;;;2.17;0.93;;;;;;;;;;6211794;23;20413;-83
2023/11/28 02:53:22;;;;;;;1.40;0.77;;;;;;;;;;6210826;23;20039;-83
2023/11/28 02:55:48;;;;;;;1.88;0.70;;;;;;;;;;6214363;23;20012;-83
2023/11/28 02:58:14;;;;;;;3.15;0.73;;;;;;;;;;6212147;23;20013;-83
2023/11/28 03:00:40;;;;;;;0.90;0.55;;;;;;;;;;6213540;23;20012;-84
2023/11/28 03:03:06;;;;;;;3.45;1.05;;;;;;;;;;6213413;23;20317;-84
2023/11/28 03:05:32;;;;;;;0.10;0.10;;;;;;;;;;6211772;23;20012;-84
2023/11/28 03:07:58;;;;;;;0.08;0.00;;;;;;;;;;6212033;23;20001;-83
2023/11/28 03:10:24;;;;;;;0.08;0.08;;;;;;;;;;6211168;23;20086;-84
2023/11/28 03:12:50;;;;;;;0.22;0.17;;;;;;;;;;6211950;23;20039;-84
2023/11/28 03:15:16;;;;;;;1.00;0.10;;;;;;;;;;6211694;23;20096;-84
2023/11/28 03:17:44;;;;;;;0.10;0.05;;;;;;;;;;6213320;23;20011;-83
2023/11/28 03:20:10;;;;;;;0.45;0.35;;;;;;;;;;6212868;23;20320;-84
2023/11/28 03:22:36;;;;;;;0.70;0.25;;;;;;;;;;6212203;23;20008;-83
2023/11/28 03:25:09;;;;;;;2.40;0.52;;;;;;;;;;6212617;23;20008;-83
2023/11/28 03:27:36;;;;;;;0.57;0.20;;;;;;;;;;6213701;23;20009;-83
2023/11/28 03:30:02;;;;;;;0.73;0.10;;;;;;;;;;6213788;23;20091;-83
2023/11/28 03:32:28;;;;;;;0.15;0.15;;;;;;;;;;6213151;23;20083;-82
2023/11/28 03:34:54;;;;;;;1.65;0.77;;;;;;;;;;6212849;23;20562;-83
2023/11/28 03:37:20;;;;;;;1.33;0.68;;;;;;;;;;6213027;23;20012;-83
2023/11/28 03:39:46;;;;;;;1.15;0.75;;;;;;;;;;6210551;23;20020;-83
2023/11/28 03:42:12;;;;;;;0.98;0.35;;;;;;;;;;6212662;23;20009;-83
2023/11/28 03:44:38;;;;;;;7.13;0.43;;;;;;;;;;6212145;23;20039;-82
2023/11/28 03:47:04;;;;;;;0.63;0.10;;;;;;;;;;6213080;23;20439;-82
2023/11/28 03:49:31;;;;;;;3.35;1.02;;;;;;;;;;6212689;23;20027;-83
2023/11/28 03:51:57;;;;;;;0.90;0.30;;;;;;;;;;6214182;23;20008;-83
2023/11/28 03:54:23;;;;;;;1.88;0.75;;;;;;;;;;6213204;23;20017;-83
2023/11/28 03:56:49;;;;;;;0.95;0.40;;;;;;;;;;6213230;23;20640;-83
2023/11/28 03:59:17;;;;;;;0.43;0.30;;;;;;;;;;6211980;23;20012;-84
2023/11/28 04:01:43;;;;;;;8.93;1.05;;;;;;;;;;6212809;23;20001;-84
2023/11/28 04:04:09;;;;;;;7.43;0.38;;;;;;;;;;6213321;23;20055;-84
2023/11/28 04:06:36;;;;;;;0.50;0.13;;;;;;;;;;6211460;23;20051;-83
2023/11/28 04:09:02;;;;;;;0.40;0.20;;;;;;;;;;6213111;23;20011;-84
2023/11/28 04:11:28;;;;;;;2.42;0.38;;;;;;;;;;6214364;23;20009;-84
2023/11/28 04:13:54;;;;;;;0.57;0.20;;;;;;;;;;6211741;23;20051;-84
2023/11/28 04:16:20;;;;;;;0.30;0.13;;;;;;;;;;6212250;23;20012;-83
2023/11/28 04:18:47;;;;;;;0.73;0.30;;;;;;;;;;6212245;23;20008;-84
2023/11/28 04:21:16;;;;;;;0.22;0.20;;;;;;;;;;6211400;23;20023;-84
2023/11/28 04:23:44;;;;;;;1.42;1.00;;;;;;;;;;6212459;23;20007;-85
2023/11/28 04:26:10;;;;;;;0.43;0.38;;;;;;;;;;6213055;23;20013;-85
2023/11/28 04:28:36;;;;;;;2.00;0.70;;;;;;;;;;6212504;23;20005;-85
2023/11/28 04:31:02;;;;;;;1.05;0.40;;;;;;;;;;6213200;23;20013;-85
2023/11/28 04:33:31;;;;;;;2.08;0.80;;;;;;;;;;6213377;23;20040;-85
2023/11/28 04:35:57;;;;;;;0.30;0.20;;;;;;;;;;6213356;23;20017;-84
2023/11/28 04:38:23;;;;;;;1.38;0.30;;;;;;;;;;6212926;23;20031;-85
2023/11/28 04:40:50;;;;;;;2.63;0.38;;;;;;;;;;6213339;23;20690;-86
2023/11/28 04:43:16;;;;;;;0.45;0.43;;;;;;;;;;6212718;23;20091;-85
2023/11/28 04:45:44;;;;;;;0.65;0.38;;;;;;;;;;6212872;23;20009;-84
2023/11/28 04:48:10;;;;;;;2.03;0.73;;;;;;;;;;6211683;23;20012;-85
2023/11/28 04:50:36;;;;;;;1.85;0.32;;;;;;;;;;6211952;23;20436;-85
2023/11/28 04:53:02;;;;;;;0.82;0.30;;;;;;;;;;6211221;23;20019;-84
2023/11/28 04:55:28;;;;;;;3.92;1.05;;;;;;;;;;6212221;23;20017;-84
2023/11/28 04:57:54;;;;;;;0.38;0.32;;;;;;;;;;6212676;23;20036;-84
2023/11/28 05:00:20;;;;;;;1.08;0.68;;;;;;;;;;6213318;23;20023;-84
2023/11/28 05:02:47;;;;;;;0.77;0.55;;;;;;;;;;6211814;23;20005;-84
2023/11/28 05:05:14;;;;;;;1.98;0.63;;;;;;;;;;6212196;23;20091;-83
2023/11/28 05:07:40;;;;;;;1.63;0.57;;;;;;;;;;6213750;23;20028;-83
2023/11/28 05:10:07;;;;;;;0.90;0.50;;;;;;;;;;6214202;23;20575;-83
2023/11/28 05:12:35;;;;;;;1.35;0.55;;;;;;;;;;6212759;23;20036;-83
2023/11/28 05:15:01;;;;;;;1.73;0.73;;;;;;;;;;6212795;23;20027;-83
2023/11/28 05:17:27;;;;;;;1.63;0.47;;;;;;;;;;6212082;23;20012;-83
2023/11/28 05:19:53;;;;;;;2.13;0.77;;;;;;;;;;6211745;23;20016;-83
2023/11/28 05:22:19;;;;;;;2.45;1.15;;;;;;;;;;6213262;23;20096;-83
2023/11/28 05:24:45;;;;;;;0.90;0.38;;;;;;;;;;6211851;23;20012;-83
2023/11/28 05:27:11;;;;;;;0.60;0.38;;;;;;;;;;6213741;23;20027;-83
2023/11/28 05:29:37;;;;;;;1.95;0.63;;;;;;;;;;6213215;23;20058;-83
2023/11/28 05:32:06;;;;;;;1.17;0.35;;;;;;;;;;6214358;23;20012;-83
2023/11/28 05:34:32;;;;;;;2.20;0.82;;;;;;;;;;6214466;23;20051;-83
2023/11/28 05:36:58;;;;;;;2.40;0.98;;;;;;;;;;6211869;23;20047;-83
2023/11/28 05:39:24;;;;;;;1.40;0.95;;;;;;;;;;6212340;23;20016;-83
2023/11/28 05:41:50;;;;;;;0.25;0.25;;;;;;;;;;6212037;23;20131;-83
2023/11/28 05:44:16;;;;;;;2.80;0.98;;;;;;;;;;6214378;23;20130;-83
2023/11/28 05:46:45;;;;;;;4.65;1.10;;;;;;;;;;6211672;23;20107;-83
2023/11/28 05:49:11;;;;;;;0.25;0.22;;;;;;;;;;6211561;23;20615;-83
2023/11/28 05:51:37;;;;;;;0.20;0.20;;;;;;;;;;6210858;23;20420;-83
2023/11/28 05:54:04;;;;;;;0.60;0.30;;;;;;;;;;6213836;23;20005;-83
2023/11/28 05:56:30;;;;;;;0.20;0.00;;;;;;;;;;6211588;23;20009;-83
2023/11/28 05:58:56;;;;;;;0.28;0.10;;;;;;;;;;6213471;23;20005;-82
2023/11/28 06:01:26;;;;;;;0.80;0.38;;;;;;;;;;6213289;23;20008;-83
2023/11/28 06:03:52;;;;;;;0.68;0.20;;;;;;;;;;6213239;23;20011;-82
2023/11/28 06:06:18;;;;;;;0.43;0.20;;;;;;;;;;6212861;23;20047;-82
2023/11/28 06:08:44;;;;;;;1.40;0.77;;;;;;;;;;6211584;23;20008;-83
2023/11/28 06:11:11;;;;;;;3.03;1.00;;;;;;;;;;6213184;23;20309;-81
2023/11/28 06:13:37;;;;;;;2.08;1.02;;;;;;;;;;6211541;23;20004;-81
2023/11/28 06:16:07;;;;;;;1.40;0.68;;;;;;;;;;6213059;23;20746;-79
2023/11/28 06:18:33;;;;;;;10.45;1.30;;;;;;;;;;6213751;23;20005;-79
2023/11/28 06:20:59;;;;;;;1.42;1.00;;;;;;;;;;6212915;23;20059;-82
2023/11/28 06:23:25;;;;;;;1.90;1.10;;;;;;;;;;6211821;23;20004;-82
2023/11/28 06:25:51;;;;;;;2.63;1.05;;;;;;;;;;6213726;23;20020;-83
2023/11/28 06:28:17;;;;;;;3.50;0.88;;;;;;;;;;6212201;23;20001;-83
2023/11/28 06:30:43;;;;;;;1.88;0.60;;;;;;;;;;6213253;23;20048;-82
2023/11/28 06:33:10;;;;;;;1.92;0.98;;;;;;;;;;6213328;23;20020;-83
2023/11/28 06:35:36;;;;;;;1.75;0.73;;;;;;;;;;6212130;23;20857;-80
2023/11/28 06:38:02;;;;;;;5.03;1.27;;;;;;;;;;6213150;23;20005;-80
2023/11/28 06:40:28;;;;;;;5.18;1.40;;;;;;;;;;6214919;23;20020;-83
2023/11/28 06:42:57;;;;;;;4.55;2.15;;;;;;;;;;6214231;23;20007;-82
2023/11/28 06:45:23;;;;;;;4.45;1.10;;;;;;;;;;6215062;23;20009;-82
2023/11/28 06:47:49;;;;;;;4.88;1.75;;;;;;;;;;6213853;23;20003;-81
2023/11/28 06:50:15;;;;;;;0.60;0.15;;;;;;;;;;6212873;23;20087;-81
2023/11/28 06:52:41;;;;;;;0.85;0.55;;;;;;;;;;6214766;23;20324;-82
2023/11/28 06:55:08;;;;;;;0.63;0.47;;;;;;;;;;6216160;23;20016;-81
2023/11/28 06:57:35;;;;;;;14.15;0.30;;;;;;;;;;6215224;23;20004;-81
2023/11/28 07:00:01;;;;;;;1.55;0.20;;;;;;;;;;6216235;23;20073;-82
2023/11/28 07:02:27;;;;;;;1.30;0.55;;;;;;;;;;6215987;23;20004;-82
2023/11/28 07:04:53;;;;;;;1.20;0.50;;;;;;;;;;6216361;23;20309;-82
2023/11/28 07:07:19;;;;;;;0.95;0.40;;;;;;;;;;6214640;23;20000;-82
2023/11/28 07:09:47;;;;;;;1.23;0.45;;;;;;;;;;6216777;23;20023;-83
2023/11/28 07:12:13;;;;;;;1.23;0.70;;;;;;;;;;6216606;23;20431;-82
2023/11/28 07:14:39;;;;;;;0.65;0.47;;;;;;;;;;6215094;23;20027;-82
2023/11/28 07:17:06;;;;;;;0.63;0.40;;;;;;;;;;6215011;23;20027;-82
2023/11/28 07:19:32;;;;;;;0.20;0.00;;;;;;;;;;6213277;23;20013;-82
2023/11/28 07:21:58;;;;;;;0.55;0.38;;;;;;;;;;6215173;23;20328;-82
2023/11/28 07:24:24;;;;;;;0.00;0.00;;;;;;;;;;6215527;23;20104;-82
2023/11/28 07:26:50;;;;;;;1.20;0.30;;;;;;;;;;6215761;23;20007;-82
2023/11/28 07:29:16;;;;;;;0.77;0.40;;;;;;;;;;6216520;23;20316;-82
2023/11/28 07:31:42;;;;;;;1.23;0.75;;;;;;;;;;6214560;23;20099;-83
2023/11/28 07:34:08;;;;;;;2.00;0.80;;;;;;;;;;6216031;23;20039;-83
2023/11/28 07:36:34;;;;;;;1.83;0.85;;;;;;;;;;6214664;23;20016;-83
2023/11/28 07:39:03;;;;;;;1.67;0.70;;;;;;;;;;6214251;23;20336;-82
2023/11/28 07:41:29;;;;;;;1.95;1.00;;;;;;;;;;6214612;23;20011;-82
2023/11/28 07:43:55;;;;;;;1.63;0.88;;;;;;;;;;6215772;23;20004;-82
2023/11/28 07:46:23;;;;;;;2.22;1.27;;;;;;;;;;6215992;23;20001;-82
2023/11/28 07:48:49;;;;;;;2.60;1.27;;;;;;;;;;6215452;23;20019;-83
2023/11/28 07:51:15;;;;;;;3.95;1.10;;;;;;;;;;6216305;23;20055;-83
2023/11/28 07:53:41;;;;;;;3.45;1.33;;;;;;;;;;6215929;23;19997;-83
2023/11/28 07:56:07;;;;;;;3.67;1.25;;;;;;;;;;6214551;23;20009;-83
2023/11/28 07:58:34;;;;;;;8.10;2.25;;;;;;;;;;6215999;23;20076;-83
2023/11/28 08:01:00;;;;;;;8.80;1.85;;;;;;;;;;6216642;23;20004;-82
2023/11/28 08:03:26;;;;;;;2.45;0.77;;;;;;;;;;6214281;23;20001;-82
2023/11/28 08:05:53;;;;;;;6.60;1.90;;;;;;;;;;6216273;23;20001;-83
2023/11/28 08:08:19;;;;;;;;;;;;;;;;;;6214349;23;20009;-83
2023/11/28 08:10:45;;;;;;;3.55;0.75;;;;;;;;;;6189493;23;20331;-82
2023/11/28 08:13:11;;;;;;;0.90;0.63;;;;;;;;;;6214487;23;20528;-83
2023/11/28 08:15:37;;;;;;;1.17;0.30;;;;;;;;;;6214599;23;20015;-83
2023/11/28 08:18:03;;;;;;;0.82;0.30;;;;;;;;;;6216012;23;20008;-82
2023/11/28 08:20:30;;;;;;;1.17;0.20;;;;;;;;;;6215637;23;20013;-82
2023/11/28 08:22:56;;;;;;;3.00;0.57;;;;;;;;;;6216053;23;20421;-82
2023/11/28 08:25:22;;;;;;;1.05;0.40;;;;;;;;;;6216345;23;20004;-82
2023/11/28 08:27:48;;;;;;;10.93;1.17;;;;;;;;;;6215934;23;20150;-82
2023/11/28 08:30:15;;;;;;;2.53;1.13;;;;;;;;;;6216149;23;20348;-82
2023/11/28 08:32:41;;;;;;;2.78;0.90;;;;;;;;;;6216238;23;20016;-82
2023/11/28 08:35:08;;;;;;;7.25;1.33;;;;;;;;;;6214405;23;20013;-82
2023/11/28 08:37:34;;;;;;;2.42;0.57;;;;;;;;;;6216061;23;20355;-82
2023/11/28 08:40:00;;;;;;;1.17;0.63;;;;;;;;;;6214429;23;20012;-82
2023/11/28 08:42:26;;;;;;;1.35;0.70;;;;;;;;;;6215677;23;20004;-82
2023/11/28 08:44:52;;;;;;;1.35;0.65;;;;;;;;;;6214456;23;20385;-82
2023/11/28 08:47:18;;;;;;;0.68;0.40;;;;;;;;;;6214253;23;20012;-82
2023/11/28 08:49:47;;;;;;;1.45;0.65;;;;;;;;;;6215736;23;20021;-82
2023/11/28 08:52:13;;;;;;;2.60;0.50;;;;;;;;;;6216424;23;20432;-82
2023/11/28 08:54:43;;;;;;;2.85;0.95;;;;;;;;;;6216326;23;20119;-83
2023/11/28 08:57:10;;;;;;;1.50;1.00;;;;;;;;;;6216267;23;20005;-83
2023/11/28 08:59:36;;;;;;;1.20;0.68;;;;;;;;;;6216565;23;20019;-82
2023/11/28 09:02:02;;;;;;;24.08;0.95;;;;;;;;;;6216295;23;20004;-82
2023/11/28 09:04:28;;;;;;;1.95;0.88;;;;;;;;;;6216619;23;20320;-82
2023/11/28 09:06:54;;;;;;;3.38;1.80;;;;;;;;;;6214861;23;20087;-83
2023/11/28 09:09:21;;;;;;;2.10;0.80;;;;;;;;;;6214683;23;20020;-82
2023/11/28 09:11:47;;;;;;;1.15;0.63;;;;;;;;;;6215950;23;20000;-83
2023/11/28 09:14:13;;;;;;;1.35;0.73;;;;;;;;;;6215845;23;20036;-83
2023/11/28 09:16:39;;;;;;;3.17;1.08;;;;;;;;;;6215556;23;20009;-83
2023/11/28 09:19:05;;;;;;;3.05;0.98;;;;;;;;;;6215443;23;20012;-82
2023/11/28 09:21:31;;;;;;;1.33;0.50;;;;;;;;;;6215085;23;20000;-82
2023/11/28 09:23:57;;;;;;;1.52;0.80;;;;;;;;;;6213519;23;20005;-82
2023/11/28 09:26:26;;;;;;;7.05;0.75;;;;;;;;;;6214883;23;20005;-82
2023/11/28 09:28:52;;;;;;;4.53;1.05;;;;;;;;;;6215146;23;20044;-82
2023/11/28 09:31:25;;;;;;;1.38;0.82;;;;;;;;;;6213310;23;20008;-82
2023/11/28 09:33:51;;;;;;;5.97;0.38;;;;;;;;;;6214920;23;20027;-82
2023/11/28 09:36:19;;;;;;;3.08;0.30;;;;;;;;;;6215329;23;20479;-82
2023/11/28 09:38:45;;;;;;;3.95;0.73;;;;;;;;;;6213714;23;20020;-82
2023/11/28 09:41:12;;;;;;;0.10;0.10;;;;;;;;;;6216301;23;20352;-82
2023/11/28 09:43:39;;;;;;;0.63;0.30;;;;;;;;;;6214909;23;20032;-81
2023/11/28 09:46:06;;;;;;;0.20;0.10;;;;;;;;;;6216322;23;20008;-83
2023/11/28 09:48:33;;;;;;;1.48;0.25;;;;;;;;;;6214661;23;20040;-82
2023/11/28 09:51:00;;;;;;;0.52;0.20;;;;;;;;;;6215427;23;20012;-83
2023/11/28 09:53:27;;;;;;;1.55;0.43;;;;;;;;;;6214411;23;20005;-82
2023/11/28 09:55:53;;;;;;;0.08;0.00;;;;;;;;;;6217393;23;20044;-82
2023/11/28 09:58:23;;;;;;;0.30;0.20;;;;;;;;;;6216392;23;20000;-82
2023/11/28 10:00:50;;;;;;;0.60;0.20;;;;;;;;;;6215162;23;20095;-82
2023/11/28 10:03:16;;;;;;;0.30;0.10;;;;;;;;;;6215990;23;20047;-83
2023/11/28 10:05:43;;;;;;;0.10;0.10;;;;;;;;;;6215570;23;20055;-82
2023/11/28 10:08:10;;;;;;;3.50;0.40;;;;;;;;;;6216621;23;20008;-82
2023/11/28 10:10:39;;;;;;;0.52;0.15;;;;;;;;;;6217005;23;20012;-82
2023/11/28 10:13:05;;;;;;;1.15;0.08;;;;;;;;;;6216105;23;20440;-83
2023/11/28 10:15:31;;;;;;;1.30;0.32;;;;;;;;;;6216686;23;20016;-83
2023/11/28 10:17:57;;;;;;;0.05;0.05;;;;;;;;;;6215103;23;20005;-82
2023/11/28 10:20:27;;;;;;;3.80;0.25;;;;;;;;;;6216256;23;20040;-82
2023/11/28 10:22:53;;;;;;;0.20;0.10;;;;;;;;;;6216402;23;20028;-82
2023/11/28 10:25:23;;;;;;;0.17;0.10;;;;;;;;;;6215192;23;20063;-82
2023/11/28 10:27:50;;;;;;;0.75;0.20;;;;;;;;;;6215605;23;20037;-82
2023/11/28 10:30:16;;;;;;;0.73;0.63;;;;;;;;;;6213307;23;20051;-81
2023/11/28 10:32:45;;;;;;;0.10;0.00;;;;;;;;;;6215366;23;20123;-82
2023/11/28 10:35:11;;;;;;;0.25;0.10;;;;;;;;;;6216141;23;20428;-82
2023/11/28 10:37:38;;;;;;;0.20;0.10;;;;;;;;;;6216172;23;20015;-82
2023/11/28 10:40:10;;;;;;;0.00;0.00;;;;;;;;;;6216088;23;20020;-82
2023/11/28 10:42:37;;;;;;;0.28;0.28;;;;;;;;;;6214361;23;20005;-82
2023/11/28 10:45:06;;;;;;;0.20;0.13;;;;;;;;;;6216717;23;20088;-83
2023/11/28 10:47:35;;;;;;;0.20;0.17;;;;;;;;;;6215744;23;20001;-83
2023/11/28 10:50:01;;;;;;;0.00;0.00;;;;;;;;;;6215587;23;20108;-83
2023/11/28 10:52:28;;;;;;;1.45;0.80;;;;;;;;;;6216801;23;20378;-83
2023/11/28 10:54:58;;;;;;;0.30;0.30;;;;;;;;;;6217315;23;20020;-82
2023/11/28 10:57:28;;;;;;;0.77;0.70;;;;;;;;;;6215259;23;20320;-83
2023/11/28 11:00:02;;;;;;;0.93;0.30;;;;;;;;;;6215026;23;20368;-83
2023/11/28 11:02:29;;;;;;;0.63;0.43;;;;;;;;;;6214885;23;20412;-83
2023/11/28 11:04:55;;;;;;;1.23;0.30;;;;;;;;;;6214092;23;20050;-83
2023/11/28 11:07:22;;;;;;;1.45;0.80;;;;;;;;;;6215356;23;19997;-82
2023/11/28 11:09:48;;;;;;;0.38;0.28;;;;;;;;;;6215914;23;20015;-83
2023/11/28 11:12:15;;;;;;;0.45;0.20;;;;;;;;;;6216298;23;20027;-83
2023/11/28 11:14:53;;;;;;;0.68;0.22;;;;;;;;;;6216607;23;20047;-83
2023/11/28 11:17:36;;;;;;;0.35;0.20;;;;;;;;;;6214426;23;20014;-83
2023/11/28 11:20:04;;;;;;;1.77;0.30;;;;;;;;;;6216648;23;20013;-83
2023/11/28 11:22:32;;;;;;;0.35;0.10;;;;;;;;;;6216577;23;20008;-84
2023/11/28 11:25:01;;;;;;;0.10;0.10;;;;;;;;;;6215121;23;20068;-83
2023/11/28 11:27:28;;;;;;;3.90;0.38;;;;;;;;;;6216417;23;20000;-83
2023/11/28 11:29:55;;;;;;;0.00;0.00;;;;;;;;;;6214737;23;20013;-83
2023/11/28 11:32:22;;;;;;;0.63;0.32;;;;;;;;;;6216572;23;20001;-83
2023/11/28 11:34:49;;;;;;;1.98;0.65;;;;;;;;;;6216642;23;20019;-83
2023/11/28 11:37:18;;;;;;;1.05;0.40;;;;;;;;;;6216133;23;20004;-83
2023/11/28 11:39:46;;;;;;;0.28;0.20;;;;;;;;;;6216539;23;20074;-83
2023/11/28 11:42:13;;;;;;;0.60;0.30;;;;;;;;;;6216398;23;20000;-83
2023/11/28 11:44:46;;;;;;;0.22;0.20;;;;;;;;;;6216378;23;20022;-83
2023/11/28 11:47:16;;;;;;;1.98;0.13;;;;;;;;;;6216154;23;20325;-83
2023/11/28 11:49:43;;;;;;;1.27;0.65;;;;;;;;;;6214746;23;20310;-83
2023/11/28 11:52:10;;;;;;;0.55;0.35;;;;;;;;;;6215295;23;20589;-83
2023/11/28 11:54:36;;;;;;;0.10;0.00;;;;;;;;;;6217002;23;20636;-84
2023/11/28 11:57:02;;;;;;;1.60;0.52;;;;;;;;;;6216603;23;20015;-84
2023/11/28 11:59:29;;;;;;;0.55;0.52;;;;;;;;;;6214594;23;20020;-83
2023/11/28 12:01:58;;;;;;;0.70;0.50;;;;;;;;;;6216238;23;20004;-83
2023/11/28 12:04:24;;;;;;;1.27;0.77;;;;;;;;;;6216351;23;20016;-83
2023/11/28 12:07:11;;;;;;;3.58;0.20;;;;;;;;;;6216083;23;20080;-83
2023/11/28 12:09:37;;;;;;;0.10;0.10;;;;;;;;;;6216452;23;20020;-83
2023/11/28 12:12:06;;;;;;;0.20;0.00;;;;;;;;;;6215285;23;20001;-83
2023/11/28 12:14:33;;;;;;;0.45;0.30;;;;;;;;;;6214916;23;20016;-83
2023/11/28 12:17:02;;;;;;;0.93;0.57;;;;;;;;;;6216507;23;20001;-83
2023/11/28 12:19:35;;;;;;;0.70;0.30;;;;;;;;;;6214541;23;20104;-83
2023/11/28 12:22:03;;;;;;;0.00;0.00;;;;;;;;;;6214752;23;20009;-83
2023/11/28 12:24:31;;;;;;;0.90;0.13;;;;;;;;;;6216253;23;20009;-83
2023/11/28 12:26:58;;;;;;;0.20;0.20;;;;;;;;;;6215967;23;20008;-83
2023/11/28 12:29:25;;;;;;;0.90;0.43;;;;;;;;;;6214781;23;20020;-83
2023/11/28 12:31:51;;;;;;;8.63;0.28;;;;;;;;;;6216475;23;20001;-83
2023/11/28 12:34:17;;;;;;;2.83;0.75;;;;;;;;;;6216642;23;20016;-83
2023/11/28 12:36:43;;;;;;;2.90;0.20;;;;;;;;;;6215097;23;20009;-83
2023/11/28 12:39:12;;;;;;;0.15;0.00;;;;;;;;;;6214774;23;20021;-83
2023/11/28 12:41:38;;;;;;;0.75;0.17;;;;;;;;;;6215069;23;20001;-83
2023/11/28 12:44:11;;;;;;;0.13;0.05;;;;;;;;;;6216500;23;19996;-83
2023/11/28 12:46:40;;;;;;;0.28;0.15;;;;;;;;;;6216720;23;20008;-83
2023/11/28 12:49:07;;;;;;;9.18;0.20;;;;;;;;;;6215080;23;20016;-83
2023/11/28 12:51:33;;;;;;;0.00;0.00;;;;;;;;;;6215220;23;20302;-83
2023/11/28 12:54:00;;;;;;;0.10;0.10;;;;;;;;;;6216747;23;19997;-83
2023/11/28 12:56:36;;;;;;;0.00;0.00;;;;;;;;;;6216748;23;20001;-83
2023/11/28 12:59:02;;;;;;;0.00;0.00;;;;;;;;;;6216752;23;20349;-83
2023/11/28 13:01:29;;;;;;;0.10;0.10;;;;;;;;;;6215306;23;20009;-83
2023/11/28 13:03:55;;;;;;;0.10;0.03;;;;;;;;;;6216797;23;20005;-83
2023/11/28 13:06:23;;;;;;;0.00;0.00;;;;;;;;;;6216751;23;19996;-83
2023/11/28 13:08:50;;;;;;;0.75;0.38;;;;;;;;;;6216707;23;20001;-83
2023/11/28 13:11:16;;;;;;;4.85;0.50;;;;;;;;;;6216440;23;20012;-83
2023/11/28 13:13:42;;;;;;;0.00;0.00;;;;;;;;;;6216755;23;20008;-83
2023/11/28 13:16:08;;;;;;;0.40;0.13;;;;;;;;;;6216279;23;20047;-83
2023/11/28 13:18:34;;;;;;;0.30;0.10;;;;;;;;;;6216623;23;20055;-83
2023/11/28 13:21:01;;;;;;;0.65;0.60;;;;;;;;;;6216833;23;20009;-83
2023/11/28 13:23:29;;;;;;;1.70;0.35;;;;;;;;;;6216695;23;20380;-83
2023/11/28 13:25:55;;;;;;;1.90;0.47;;;;;;;;;;6216891;23;20094;-83
2023/11/28 13:28:22;;;;;;;0.17;0.10;;;;;;;;;;6217006;23;20005;-83
2023/11/28 13:30:48;;;;;;;0.38;0.30;;;;;;;;;;6219023;23;20016;-83
2023/11/28 13:33:14;;;;;;;0.20;0.15;;;;;;;;;;6216768;23;20013;-83
2023/11/28 13:35:40;;;;;;;0.55;0.32;;;;;;;;;;6217161;23;20012;-83
2023/11/28 13:38:06;;;;;;;0.50;0.00;;;;;;;;;;6217114;23;20547;-83
2023/11/28 13:40:32;;;;;;;0.98;0.57;;;;;;;;;;6217373;23;20298;-83
2023/11/28 13:42:58;;;;;;;0.98;0.22;;;;;;;;;;6216287;23;20016;-83
2023/11/28 13:45:29;;;;;;;2.83;0.73;;;;;;;;;;6216184;23;20004;-84
2023/11/28 13:47:59;;;;;;;0.55;0.40;;;;;;;;;;6216047;23;20009;-83
2023/11/28 13:50:25;;;;;;;0.10;0.10;;;;;;;;;;6216873;23;20024;-84
2023/11/28 13:52:52;;;;;;;2.03;0.35;;;;;;;;;;6216267;23;20008;-84
2023/11/28 13:55:18;;;;;;;0.00;0.00;;;;;;;;;;6216000;23;20020;-84
2023/11/28 13:57:45;;;;;;;0.05;0.00;;;;;;;;;;6216520;23;20012;-85
2023/11/28 14:00:14;;;;;;;0.00;0.00;;;;;;;;;;6217743;23;20304;-84
2023/11/28 14:02:40;;;;;;;0.00;0.00;;;;;;;;;;6216771;23;20005;-85
2023/11/28 14:05:08;;;;;;;0.10;0.08;;;;;;;;;;6216500;23;20032;-84
2023/11/28 14:07:34;;;;;;;0.20;0.10;;;;;;;;;;6216438;23;20009;-84
2023/11/28 14:10:00;;;;;;;0.00;0.00;;;;;;;;;;6217864;23;20054;-84
2023/11/28 14:12:26;;;;;;;0.15;0.03;;;;;;;;;;6216692;23;20411;-85
2023/11/28 14:14:52;;;;;;;0.00;0.00;;;;;;;;;;6218067;23;20036;-84
2023/11/28 14:17:18;;;;;;;0.32;0.10;;;;;;;;;;6217710;23;20005;-84
2023/11/28 14:19:44;;;;;;;0.25;0.20;;;;;;;;;;6215749;23;20020;-84
2023/11/28 14:22:11;;;;;;;3.65;0.95;;;;;;;;;;6216078;23;20043;-83
2023/11/28 14:24:37;;;;;;;1.55;0.08;;;;;;;;;;6217115;23;20004;-84
2023/11/28 14:27:03;;;;;;;0.10;0.00;;;;;;;;;;6215971;23;20327;-85
2023/11/28 14:29:29;;;;;;;0.73;0.08;;;;;;;;;;6216236;23;20068;-84
2023/11/28 14:31:55;;;;;;;0.55;0.10;;;;;;;;;;6217245;23;20008;-84
2023/11/28 14:34:21;;;;;;;0.05;0.00;;;;;;;;;;6216472;23;20594;-84
2023/11/28 14:36:48;;;;;;;0.00;0.00;;;;;;;;;;6216524;23;20008;-84
2023/11/28 14:39:15;;;;;;;0.35;0.10;;;;;;;;;;6216208;23;20016;-84
2023/11/28 14:41:41;;;;;;;0.82;0.47;;;;;;;;;;6216215;23;20051;-84